»·PEaware :: DAL213 KDEN-KEGE

DAL213 :: KDEN-KEGE

FLIGHT INFORMATION

Flight Status: Arrived
Operator:
Delta Air Lines
More flights by this operator :: More flights under this callsign
Pilot: Nicolas L. (9332)
Aircraft: BOEING 737-800
(B738)
More flights by this aircraft type
Origin: KDEN Denver Intl
United States
Destination: KEGE Eagle Co Regl
United States
More flights between these airports :: More routes between these airports
Route: +FOOOT3 RLG
File this flight plan on PilotEdge
Remarks: Live Streaming on Twith "DAL213" and YT
Altitude:
(Current/Filed)
18,000ft
Speed:
(Current/Filed)
400kts
Departed: 10-May-18 08:17 PM
Arrived: 10-May-18 08:42 PM
Distance/Time
Traveled:
105nm/0:25
Distance/Time
To Go:
Arrived

Flight Plot

Page will automatically refresh every two minutes.


Map Options




Map Legend


Flown Route
Filed Route
Departure Airport
Arrival Airport
Navaid (VOR, NDB)
Fix

Horizontal Profiles

Position Reports

Time Latitude Longitude Heading Altitude Ground
Speed
10-May-18 20:01 39.854261 -104.666809 304 5439ft 0kts
10-May-18 20:02 39.854261 -104.666809 304 5439ft 0kts
10-May-18 20:03 39.854261 -104.666809 304 5439ft 0kts
10-May-18 20:04 39.854261 -104.666809 304 5439ft 0kts
10-May-18 20:05 39.854261 -104.666809 304 5439ft 0kts
10-May-18 20:06 39.854261 -104.666809 304 5439ft 0kts
10-May-18 20:07 39.854261 -104.666809 304 5439ft 0kts
10-May-18 20:08 39.854261 -104.666809 304 5439ft 0kts
10-May-18 20:09 39.855394 -104.666674 43 5439ft 9kts
10-May-18 20:10 39.855845 -104.662964 97 5439ft 10kts
10-May-18 20:11 39.851084 -104.662406 180 5439ft 23kts
10-May-18 20:12 39.844424 -104.662490 180 5439ft 24kts
10-May-18 20:13 39.837843 -104.662549 180 5439ft 23kts
10-May-18 20:14 39.831381 -104.662647 180 5439ft 23kts
10-May-18 20:15 39.828397 -104.662228 93 5439ft 0kts
10-May-18 20:16 39.828729 -104.660562 12 5439ft 15kts
10-May-18 20:17 39.860410 -104.660110 1 6154ft 179kts
10-May-18 20:18 39.896254 -104.705949 285 8728ft 240kts
10-May-18 20:19 39.917172 -104.797804 284 9993ft 281kts
10-May-18 20:20 39.940901 -104.897109 277 10000ft 307kts
10-May-18 20:21 39.949231 -105.016583 276 11774ft 343kts
10-May-18 20:22 39.963924 -105.140758 275 14766ft 350kts
10-May-18 20:23 39.978644 -105.267834 275 17604ft 360kts
10-May-18 20:24 39.982801 -105.399932 265 19921ft 377kts
10-May-18 20:25 39.978737 -105.537865 265 20014ft 382kts
10-May-18 20:26 39.974681 -105.675998 265 20138ft 381kts
10-May-18 20:27 39.971964 -105.814369 266 20156ft 380kts
10-May-18 20:28 39.976092 -105.952374 271 20124ft 382kts
10-May-18 20:29 39.983968 -106.090265 271 20101ft 382kts
10-May-18 20:30 39.991397 -106.228057 271 19275ft 377kts
10-May-18 20:31 39.998261 -106.364889 266 16414ft 374kts
10-May-18 20:32 39.956726 -106.474728 221 15275ft 327kts
10-May-18 20:33 39.886827 -106.535419 215 14777ft 274kts
10-May-18 20:34 39.824382 -106.586359 214 14248ft 257kts
10-May-18 20:35 39.757720 -106.619217 200 14106ft 251kts
10-May-18 20:36 39.696120 -106.654101 233 13597ft 238kts
10-May-18 20:37 39.676535 -106.737909 254 11702ft 249kts
10-May-18 20:38 39.660982 -106.820886 254 10171ft 220kts
10-May-18 20:39 39.649056 -106.889672 267 8030ft 179kts
10-May-18 20:40 39.656330 -106.947837 262 7139ft 153kts
10-May-18 20:41 39.641336 -106.929068 82 6535ft 148kts
10-May-18 20:42 39.642818 -106.909434 172 6524ft 10kts
10-May-18 20:43 39.641965 -106.913102 262 6524ft 18kts
10-May-18 20:44 39.640741 -106.915479 170 6523ft 8kts
10-May-18 20:45 39.640620 -106.915455 172 6524ft 0kts
10-May-18 20:46 39.640620 -106.915455 172 6524ft 0kts
10-May-18 20:47 39.640620 -106.915455 172 6524ft 0kts
10-May-18 20:48 39.640620 -106.915455 172 6524ft 0kts
10-May-18 20:49 39.640620 -106.915455 172 6524ft 0kts
10-May-18 20:50 39.640620 -106.915455 172 6524ft 0kts
10-May-18 20:51 39.640620 -106.915455 172 6524ft 0kts
10-May-18 20:52 39.640620 -106.915455 172 6524ft 0kts
10-May-18 20:53 39.640620 -106.915455 172 6524ft 0kts
10-May-18 20:54 39.640620 -106.915455 172 6524ft 0kts
10-May-18 20:55 39.640620 -106.915455 172 6524ft 0kts
10-May-18 20:56 39.640620 -106.915455 172 6524ft 0kts

Navigation Log

Ident Type
1. KDEN Airport
2. PENEY Fix
3. RLG Navaid
4. KEGE Airport